sensor_id;sensor_type;location;lat;lon;timestamp;P1;durP1;ratioP1;P2;durP2;ratioP2
74168;SDS011;62523;53.336;83.690;2023-03-15T00:04:07;77.80;;;33.70;;
74168;SDS011;62523;53.336;83.690;2023-03-15T00:09:08;96.55;;;34.72;;
74168;SDS011;62523;53.336;83.690;2023-03-15T00:14:09;79.55;;;31.65;;
74168;SDS011;62523;53.336;83.690;2023-03-15T00:19:11;76.53;;;35.93;;
74168;SDS011;62523;53.336;83.690;2023-03-15T00:24:12;104.57;;;43.77;;
74168;SDS011;62523;53.336;83.690;2023-03-15T00:29:13;101.43;;;41.92;;
74168;SDS011;62523;53.336;83.690;2023-03-15T00:34:14;133.77;;;69.97;;
74168;SDS011;62523;53.336;83.690;2023-03-15T00:39:15;118.90;;;54.35;;
74168;SDS011;62523;53.336;83.690;2023-03-15T00:44:16;110.20;;;51.10;;
74168;SDS011;62523;53.336;83.690;2023-03-15T00:49:18;108.33;;;49.37;;
74168;SDS011;62523;53.336;83.690;2023-03-15T00:54:19;109.80;;;50.63;;
74168;SDS011;62523;53.336;83.690;2023-03-15T00:59:23;118.22;;;51.60;;
74168;SDS011;62523;53.336;83.690;2023-03-15T01:04:24;129.15;;;59.88;;
74168;SDS011;62523;53.336;83.690;2023-03-15T01:09:25;107.05;;;47.95;;
74168;SDS011;62523;53.336;83.690;2023-03-15T01:14:27;141.68;;;55.92;;
74168;SDS011;62523;53.336;83.690;2023-03-15T01:19:28;117.85;;;51.63;;
74168;SDS011;62523;53.336;83.690;2023-03-15T01:24:29;116.85;;;58.88;;
74168;SDS011;62523;53.336;83.690;2023-03-15T01:29:31;130.57;;;53.63;;
74168;SDS011;62523;53.336;83.690;2023-03-15T01:34:32;142.43;;;61.28;;
74168;SDS011;62523;53.336;83.690;2023-03-15T01:39:34;151.40;;;63.83;;
74168;SDS011;62523;53.336;83.690;2023-03-15T01:50:02;194.30;;;101.85;;
74168;SDS011;62523;53.336;83.690;2023-03-15T01:55:11;193.73;;;108.97;;
74168;SDS011;62523;53.336;83.690;2023-03-15T02:00:17;237.30;;;114.32;;
74168;SDS011;62523;53.336;83.690;2023-03-15T02:05:20;194.07;;;101.55;;
74168;SDS011;62523;53.336;83.690;2023-03-15T02:11:01;178.63;;;96.15;;
74168;SDS011;62523;53.336;83.690;2023-03-15T02:15:58;175.68;;;89.20;;
74168;SDS011;62523;53.336;83.690;2023-03-15T02:26:33;128.32;;;61.92;;
74168;SDS011;62523;53.336;83.690;2023-03-15T02:31:45;133.98;;;66.25;;
74168;SDS011;62523;53.336;83.690;2023-03-15T02:36:46;113.13;;;57.70;;
74168;SDS011;62523;53.336;83.690;2023-03-15T02:41:54;115.60;;;54.88;;
74168;SDS011;62523;53.336;83.690;2023-03-15T02:47:00;90.35;;;39.72;;
74168;SDS011;62523;53.336;83.690;2023-03-15T02:52:05;69.10;;;35.08;;
74168;SDS011;62523;53.336;83.690;2023-03-15T02:57:07;139.48;;;48.72;;
74168;SDS011;62523;53.336;83.690;2023-03-15T03:02:09;101.55;;;45.15;;
74168;SDS011;62523;53.336;83.690;2023-03-15T03:07:13;46.13;;;25.08;;
74168;SDS011;62523;53.336;83.690;2023-03-15T03:12:14;61.50;;;28.57;;
74168;SDS011;62523;53.336;83.690;2023-03-15T03:17:16;54.22;;;21.98;;
74168;SDS011;62523;53.336;83.690;2023-03-15T03:22:20;37.10;;;19.35;;
74168;SDS011;62523;53.336;83.690;2023-03-15T03:27:24;48.60;;;19.17;;
74168;SDS011;62523;53.336;83.690;2023-03-15T03:32:25;37.00;;;19.30;;
74168;SDS011;62523;53.336;83.690;2023-03-15T03:37:26;39.03;;;18.50;;
74168;SDS011;62523;53.336;83.690;2023-03-15T03:42:27;35.30;;;7.37;;
74168;SDS011;62523;53.336;83.690;2023-03-15T03:47:28;19.70;;;8.00;;
74168;SDS011;62523;53.336;83.690;2023-03-15T03:52:29;20.00;;;5.80;;
74168;SDS011;62523;53.336;83.690;2023-03-15T03:57:30;22.70;;;7.07;;
74168;SDS011;62523;53.336;83.690;2023-03-15T04:02:32;23.50;;;6.10;;
74168;SDS011;62523;53.336;83.690;2023-03-15T04:07:33;37.75;;;8.60;;
74168;SDS011;62523;53.336;83.690;2023-03-15T04:12:35;11.80;;;6.07;;
74168;SDS011;62523;53.336;83.690;2023-03-15T04:17:39;26.83;;;8.02;;
74168;SDS011;62523;53.336;83.690;2023-03-15T04:22:40;14.55;;;5.18;;
74168;SDS011;62523;53.336;83.690;2023-03-15T04:27:41;17.27;;;5.67;;
74168;SDS011;62523;53.336;83.690;2023-03-15T04:32:43;6.80;;;3.97;;
74168;SDS011;62523;53.336;83.690;2023-03-15T04:37:44;10.77;;;4.67;;
74168;SDS011;62523;53.336;83.690;2023-03-15T04:42:45;21.08;;;4.85;;
74168;SDS011;62523;53.336;83.690;2023-03-15T04:47:47;13.30;;;4.40;;
74168;SDS011;62523;53.336;83.690;2023-03-15T04:52:53;5.05;;;3.10;;
74168;SDS011;62523;53.336;83.690;2023-03-15T04:57:54;8.05;;;4.00;;
74168;SDS011;62523;53.336;83.690;2023-03-15T05:07:57;39.13;;;13.00;;
74168;SDS011;62523;53.336;83.690;2023-03-15T05:12:58;48.05;;;16.48;;
74168;SDS011;62523;53.336;83.690;2023-03-15T05:18:00;34.63;;;14.88;;
74168;SDS011;62523;53.336;83.690;2023-03-15T05:23:01;32.07;;;14.90;;
74168;SDS011;62523;53.336;83.690;2023-03-15T05:28:03;36.92;;;13.43;;
74168;SDS011;62523;53.336;83.690;2023-03-15T05:33:05;26.95;;;10.90;;
74168;SDS011;62523;53.336;83.690;2023-03-15T05:38:06;30.07;;;12.13;;
74168;SDS011;62523;53.336;83.690;2023-03-15T05:43:07;26.50;;;14.10;;
74168;SDS011;62523;53.336;83.690;2023-03-15T05:48:08;21.53;;;9.43;;
74168;SDS011;62523;53.336;83.690;2023-03-15T05:53:09;24.58;;;11.00;;
74168;SDS011;62523;53.336;83.690;2023-03-15T05:58:10;45.30;;;17.13;;
74168;SDS011;62523;53.336;83.690;2023-03-15T06:03:12;32.95;;;14.93;;
74168;SDS011;62523;53.336;83.690;2023-03-15T06:08:13;33.07;;;17.10;;
74168;SDS011;62523;53.336;83.690;2023-03-15T06:13:14;28.73;;;12.93;;
74168;SDS011;62523;53.336;83.690;2023-03-15T06:18:15;31.23;;;12.50;;
74168;SDS011;62523;53.336;83.690;2023-03-15T06:23:19;12.30;;;7.65;;
74168;SDS011;62523;53.336;83.690;2023-03-15T06:28:20;20.00;;;5.85;;
74168;SDS011;62523;53.336;83.690;2023-03-15T06:33:21;8.18;;;4.95;;
74168;SDS011;62523;53.336;83.690;2023-03-15T06:38:23;14.82;;;6.32;;
74168;SDS011;62523;53.336;83.690;2023-03-15T06:43:24;5.85;;;3.72;;
74168;SDS011;62523;53.336;83.690;2023-03-15T06:48:26;13.45;;;5.57;;
74168;SDS011;62523;53.336;83.690;2023-03-15T06:53:28;8.95;;;6.07;;
74168;SDS011;62523;53.336;83.690;2023-03-15T06:58:29;8.35;;;4.35;;
74168;SDS011;62523;53.336;83.690;2023-03-15T07:03:30;5.90;;;3.78;;
74168;SDS011;62523;53.336;83.690;2023-03-15T07:08:31;7.28;;;4.15;;
74168;SDS011;62523;53.336;83.690;2023-03-15T07:13:32;7.97;;;3.80;;
74168;SDS011;62523;53.336;83.690;2023-03-15T07:18:33;11.25;;;5.38;;
74168;SDS011;62523;53.336;83.690;2023-03-15T07:23:34;6.70;;;3.78;;
74168;SDS011;62523;53.336;83.690;2023-03-15T07:28:36;6.97;;;4.20;;
74168;SDS011;62523;53.336;83.690;2023-03-15T07:33:37;7.75;;;4.22;;
74168;SDS011;62523;53.336;83.690;2023-03-15T07:38:39;6.10;;;3.35;;
74168;SDS011;62523;53.336;83.690;2023-03-15T07:43:41;5.47;;;3.20;;
74168;SDS011;62523;53.336;83.690;2023-03-15T07:48:42;7.88;;;3.20;;
74168;SDS011;62523;53.336;83.690;2023-03-15T07:53:43;3.13;;;2.70;;
74168;SDS011;62523;53.336;83.690;2023-03-15T07:58:45;5.25;;;3.10;;
74168;SDS011;62523;53.336;83.690;2023-03-15T08:03:46;10.00;;;3.00;;
74168;SDS011;62523;53.336;83.690;2023-03-15T08:08:47;5.85;;;3.25;;
74168;SDS011;62523;53.336;83.690;2023-03-15T08:13:48;5.55;;;2.90;;
74168;SDS011;62523;53.336;83.690;2023-03-15T08:18:49;11.77;;;6.05;;
74168;SDS011;62523;53.336;83.690;2023-03-15T08:30:31;6.63;;;4.18;;
74168;SDS011;62523;53.336;83.690;2023-03-15T08:35:35;18.40;;;7.38;;
74168;SDS011;62523;53.336;83.690;2023-03-15T08:40:37;22.58;;;11.52;;
74168;SDS011;62523;53.336;83.690;2023-03-15T08:50:39;22.53;;;11.73;;
74168;SDS011;62523;53.336;83.690;2023-03-15T09:00:41;39.80;;;19.07;;
74168;SDS011;62523;53.336;83.690;2023-03-15T09:05:42;42.95;;;18.45;;
74168;SDS011;62523;53.336;83.690;2023-03-15T09:10:44;33.45;;;16.98;;
74168;SDS011;62523;53.336;83.690;2023-03-15T09:20:46;28.20;;;18.10;;
74168;SDS011;62523;53.336;83.690;2023-03-15T09:25:47;40.88;;;18.52;;
74168;SDS011;62523;53.336;83.690;2023-03-15T09:30:48;27.92;;;15.45;;
74168;SDS011;62523;53.336;83.690;2023-03-15T09:40:55;29.48;;;14.57;;
74168;SDS011;62523;53.336;83.690;2023-03-15T09:51:45;30.08;;;13.50;;
74168;SDS011;62523;53.336;83.690;2023-03-15T10:02:29;31.70;;;14.00;;
74168;SDS011;62523;53.336;83.690;2023-03-15T10:07:31;30.95;;;16.42;;
74168;SDS011;62523;53.336;83.690;2023-03-15T10:12:35;37.95;;;20.55;;
74168;SDS011;62523;53.336;83.690;2023-03-15T10:23:25;41.33;;;20.30;;
74168;SDS011;62523;53.336;83.690;2023-03-15T10:28:37;45.75;;;27.02;;
74168;SDS011;62523;53.336;83.690;2023-03-15T10:33:39;41.30;;;22.58;;
74168;SDS011;62523;53.336;83.690;2023-03-15T10:38:42;51.42;;;24.58;;
74168;SDS011;62523;53.336;83.690;2023-03-15T10:43:44;36.42;;;20.63;;
74168;SDS011;62523;53.336;83.690;2023-03-15T10:48:59;49.95;;;16.90;;
74168;SDS011;62523;53.336;83.690;2023-03-15T10:54:21;25.20;;;14.15;;
74168;SDS011;62523;53.336;83.690;2023-03-15T10:59:25;25.65;;;13.18;;
74168;SDS011;62523;53.336;83.690;2023-03-15T11:04:28;22.02;;;13.02;;
74168;SDS011;62523;53.336;83.690;2023-03-15T11:09:38;22.90;;;12.52;;
74168;SDS011;62523;53.336;83.690;2023-03-15T11:14:42;31.80;;;14.25;;
74168;SDS011;62523;53.336;83.690;2023-03-15T11:19:50;30.58;;;15.68;;
74168;SDS011;62523;53.336;83.690;2023-03-15T11:24:55;30.83;;;15.50;;
74168;SDS011;62523;53.336;83.690;2023-03-15T11:29:58;38.35;;;18.17;;
74168;SDS011;62523;53.336;83.690;2023-03-15T11:35:02;46.13;;;20.45;;
74168;SDS011;62523;53.336;83.690;2023-03-15T11:45:35;38.90;;;21.92;;
74168;SDS011;62523;53.336;83.690;2023-03-15T11:50:43;46.38;;;29.02;;
74168;SDS011;62523;53.336;83.690;2023-03-15T11:55:49;49.75;;;28.17;;
74168;SDS011;62523;53.336;83.690;2023-03-15T12:00:54;41.60;;;22.70;;
74168;SDS011;62523;53.336;83.690;2023-03-15T12:06:11;43.97;;;26.23;;
74168;SDS011;62523;53.336;83.690;2023-03-15T12:16:21;44.72;;;25.20;;
74168;SDS011;62523;53.336;83.690;2023-03-15T12:21:33;56.92;;;26.23;;
74168;SDS011;62523;53.336;83.690;2023-03-15T12:26:42;43.90;;;24.00;;
74168;SDS011;62523;53.336;83.690;2023-03-15T12:31:53;51.13;;;27.17;;
74168;SDS011;62523;53.336;83.690;2023-03-15T12:36:56;74.03;;;35.80;;
74168;SDS011;62523;53.336;83.690;2023-03-15T12:42:04;85.72;;;45.45;;
74168;SDS011;62523;53.336;83.690;2023-03-15T12:47:07;66.43;;;36.72;;
74168;SDS011;62523;53.336;83.690;2023-03-15T12:57:11;49.15;;;29.38;;
74168;SDS011;62523;53.336;83.690;2023-03-15T13:02:28;49.28;;;28.85;;
74168;SDS011;62523;53.336;83.690;2023-03-15T13:07:35;36.00;;;22.92;;
74168;SDS011;62523;53.336;83.690;2023-03-15T13:12:52;43.03;;;29.73;;
74168;SDS011;62523;53.336;83.690;2023-03-15T13:18:04;46.80;;;28.15;;
74168;SDS011;62523;53.336;83.690;2023-03-15T13:23:20;51.28;;;31.90;;
74168;SDS011;62523;53.336;83.690;2023-03-15T13:28:31;56.70;;;36.72;;
74168;SDS011;62523;53.336;83.690;2023-03-15T13:33:40;89.90;;;55.27;;
74168;SDS011;62523;53.336;83.690;2023-03-15T13:38:42;103.00;;;53.78;;
74168;SDS011;62523;53.336;83.690;2023-03-15T13:43:45;83.88;;;47.40;;
74168;SDS011;62523;53.336;83.690;2023-03-15T13:48:48;86.07;;;45.42;;
74168;SDS011;62523;53.336;83.690;2023-03-15T13:53:51;81.75;;;45.33;;
74168;SDS011;62523;53.336;83.690;2023-03-15T13:58:56;50.85;;;28.55;;
74168;SDS011;62523;53.336;83.690;2023-03-15T14:03:59;42.10;;;20.08;;
74168;SDS011;62523;53.336;83.690;2023-03-15T14:09:16;34.58;;;16.75;;
74168;SDS011;62523;53.336;83.690;2023-03-15T14:14:21;27.92;;;15.25;;
74168;SDS011;62523;53.336;83.690;2023-03-15T14:19:25;28.33;;;13.75;;
74168;SDS011;62523;53.336;83.690;2023-03-15T14:29:37;23.63;;;13.48;;
74168;SDS011;62523;53.336;83.690;2023-03-15T14:34:46;34.03;;;17.52;;
74168;SDS011;62523;53.336;83.690;2023-03-15T14:39:48;35.00;;;17.27;;
74168;SDS011;62523;53.336;83.690;2023-03-15T14:44:49;33.90;;;17.00;;
74168;SDS011;62523;53.336;83.690;2023-03-15T14:49:50;37.65;;;16.70;;
74168;SDS011;62523;53.336;83.690;2023-03-15T14:54:51;32.25;;;16.10;;
74168;SDS011;62523;53.336;83.690;2023-03-15T15:04:54;47.92;;;22.30;;
74168;SDS011;62523;53.336;83.690;2023-03-15T15:09:55;44.03;;;21.20;;
74168;SDS011;62523;53.336;83.690;2023-03-15T15:15:16;34.58;;;20.05;;
74168;SDS011;62523;53.336;83.690;2023-03-15T15:20:19;31.45;;;16.92;;
74168;SDS011;62523;53.336;83.690;2023-03-15T15:25:22;55.92;;;26.52;;
74168;SDS011;62523;53.336;83.690;2023-03-15T15:30:24;44.67;;;24.58;;
74168;SDS011;62523;53.336;83.690;2023-03-15T15:35:27;49.28;;;22.65;;
74168;SDS011;62523;53.336;83.690;2023-03-15T15:40:31;52.67;;;22.75;;
74168;SDS011;62523;53.336;83.690;2023-03-15T15:45:33;49.85;;;19.98;;
74168;SDS011;62523;53.336;83.690;2023-03-15T15:50:34;54.65;;;20.67;;
74168;SDS011;62523;53.336;83.690;2023-03-15T15:55:36;24.08;;;14.27;;
74168;SDS011;62523;53.336;83.690;2023-03-15T16:00:38;27.85;;;14.23;;
74168;SDS011;62523;53.336;83.690;2023-03-15T16:05:40;29.13;;;15.35;;
74168;SDS011;62523;53.336;83.690;2023-03-15T16:10:42;53.72;;;17.40;;
74168;SDS011;62523;53.336;83.690;2023-03-15T16:15:47;31.77;;;13.55;;
74168;SDS011;62523;53.336;83.690;2023-03-15T16:20:48;28.60;;;13.52;;
74168;SDS011;62523;53.336;83.690;2023-03-15T16:25:50;30.20;;;11.52;;
74168;SDS011;62523;53.336;83.690;2023-03-15T16:30:55;28.73;;;12.00;;
74168;SDS011;62523;53.336;83.690;2023-03-15T16:35:56;19.60;;;10.80;;
74168;SDS011;62523;53.336;83.690;2023-03-15T16:40:57;20.17;;;8.43;;
74168;SDS011;62523;53.336;83.690;2023-03-15T16:46:00;19.55;;;9.82;;
74168;SDS011;62523;53.336;83.690;2023-03-15T16:51:01;18.75;;;9.05;;
74168;SDS011;62523;53.336;83.690;2023-03-15T16:56:04;15.98;;;7.47;;
74168;SDS011;62523;53.336;83.690;2023-03-15T17:01:07;22.73;;;8.43;;
74168;SDS011;62523;53.336;83.690;2023-03-15T17:06:14;27.10;;;7.80;;
74168;SDS011;62523;53.336;83.690;2023-03-15T17:11:22;17.63;;;8.52;;
74168;SDS011;62523;53.336;83.690;2023-03-15T17:16:25;18.25;;;7.82;;
74168;SDS011;62523;53.336;83.690;2023-03-15T17:21:26;17.63;;;6.60;;
74168;SDS011;62523;53.336;83.690;2023-03-15T17:26:30;17.30;;;8.15;;
74168;SDS011;62523;53.336;83.690;2023-03-15T17:31:34;29.17;;;9.88;;
74168;SDS011;62523;53.336;83.690;2023-03-15T17:36:38;18.25;;;7.85;;
74168;SDS011;62523;53.336;83.690;2023-03-15T17:41:42;15.07;;;7.03;;
74168;SDS011;62523;53.336;83.690;2023-03-15T17:46:46;26.67;;;10.27;;
74168;SDS011;62523;53.336;83.690;2023-03-15T17:51:49;23.30;;;13.50;;
74168;SDS011;62523;53.336;83.690;2023-03-15T17:56:59;23.13;;;10.93;;
74168;SDS011;62523;53.336;83.690;2023-03-15T18:02:01;14.32;;;7.57;;
74168;SDS011;62523;53.336;83.690;2023-03-15T18:07:02;19.35;;;9.18;;
74168;SDS011;62523;53.336;83.690;2023-03-15T18:12:03;22.53;;;7.80;;
74168;SDS011;62523;53.336;83.690;2023-03-15T18:17:04;24.70;;;6.88;;
74168;SDS011;62523;53.336;83.690;2023-03-15T18:22:05;14.77;;;6.13;;
74168;SDS011;62523;53.336;83.690;2023-03-15T18:27:06;11.48;;;7.50;;
74168;SDS011;62523;53.336;83.690;2023-03-15T18:32:08;21.60;;;8.05;;
74168;SDS011;62523;53.336;83.690;2023-03-15T18:37:10;9.18;;;6.15;;
74168;SDS011;62523;53.336;83.690;2023-03-15T18:42:11;8.77;;;6.28;;
74168;SDS011;62523;53.336;83.690;2023-03-15T18:47:12;10.25;;;6.10;;
74168;SDS011;62523;53.336;83.690;2023-03-15T18:52:13;17.35;;;6.63;;
74168;SDS011;62523;53.336;83.690;2023-03-15T19:02:17;17.45;;;5.45;;
74168;SDS011;62523;53.336;83.690;2023-03-15T19:07:18;10.57;;;6.47;;
74168;SDS011;62523;53.336;83.690;2023-03-15T19:12:19;12.93;;;6.10;;
74168;SDS011;62523;53.336;83.690;2023-03-15T19:17:20;13.02;;;4.32;;
74168;SDS011;62523;53.336;83.690;2023-03-15T19:22:21;12.80;;;5.88;;
74168;SDS011;62523;53.336;83.690;2023-03-15T19:27:22;15.60;;;4.93;;
74168;SDS011;62523;53.336;83.690;2023-03-15T19:37:25;16.08;;;4.18;;
74168;SDS011;62523;53.336;83.690;2023-03-15T19:42:26;9.07;;;3.88;;
74168;SDS011;62523;53.336;83.690;2023-03-15T19:47:27;10.73;;;5.15;;
74168;SDS011;62523;53.336;83.690;2023-03-15T19:52:29;7.88;;;4.70;;
74168;SDS011;62523;53.336;83.690;2023-03-15T19:57:32;11.82;;;4.05;;
74168;SDS011;62523;53.336;83.690;2023-03-15T20:02:33;6.35;;;3.70;;
74168;SDS011;62523;53.336;83.690;2023-03-15T20:07:35;16.87;;;3.70;;
74168;SDS011;62523;53.336;83.690;2023-03-15T20:12:36;12.07;;;5.00;;
74168;SDS011;62523;53.336;83.690;2023-03-15T20:17:39;7.55;;;4.13;;
74168;SDS011;62523;53.336;83.690;2023-03-15T20:22:42;11.18;;;4.25;;
74168;SDS011;62523;53.336;83.690;2023-03-15T20:27:45;9.15;;;3.47;;
74168;SDS011;62523;53.336;83.690;2023-03-15T20:32:46;5.95;;;3.67;;
74168;SDS011;62523;53.336;83.690;2023-03-15T20:37:48;6.50;;;3.53;;
74168;SDS011;62523;53.336;83.690;2023-03-15T20:42:52;6.47;;;3.63;;
74168;SDS011;62523;53.336;83.690;2023-03-15T20:47:53;5.40;;;3.25;;
74168;SDS011;62523;53.336;83.690;2023-03-15T20:52:54;6.45;;;3.42;;
74168;SDS011;62523;53.336;83.690;2023-03-15T20:57:56;7.97;;;3.40;;
74168;SDS011;62523;53.336;83.690;2023-03-15T21:02:57;7.63;;;3.83;;
74168;SDS011;62523;53.336;83.690;2023-03-15T21:07:58;11.97;;;3.33;;
74168;SDS011;62523;53.336;83.690;2023-03-15T21:13:00;4.03;;;2.70;;
74168;SDS011;62523;53.336;83.690;2023-03-15T21:18:06;10.77;;;4.28;;
74168;SDS011;62523;53.336;83.690;2023-03-15T21:23:07;8.57;;;3.40;;
74168;SDS011;62523;53.336;83.690;2023-03-15T21:28:09;6.95;;;4.88;;
74168;SDS011;62523;53.336;83.690;2023-03-15T21:33:10;7.33;;;4.13;;
74168;SDS011;62523;53.336;83.690;2023-03-15T21:38:11;6.20;;;3.80;;
74168;SDS011;62523;53.336;83.690;2023-03-15T21:43:13;5.82;;;3.35;;
74168;SDS011;62523;53.336;83.690;2023-03-15T21:48:14;6.88;;;3.35;;
74168;SDS011;62523;53.336;83.690;2023-03-15T21:53:17;7.38;;;3.42;;
74168;SDS011;62523;53.336;83.690;2023-03-15T21:58:18;5.13;;;2.75;;
74168;SDS011;62523;53.336;83.690;2023-03-15T22:03:19;10.57;;;4.20;;
74168;SDS011;62523;53.336;83.690;2023-03-15T22:08:24;6.25;;;4.63;;
74168;SDS011;62523;53.336;83.690;2023-03-15T22:13:25;4.35;;;2.97;;
74168;SDS011;62523;53.336;83.690;2023-03-15T22:18:27;2.80;;;2.35;;
74168;SDS011;62523;53.336;83.690;2023-03-15T22:23:28;3.30;;;2.28;;
74168;SDS011;62523;53.336;83.690;2023-03-15T22:28:29;1.37;;;1.10;;
74168;SDS011;62523;53.336;83.690;2023-03-15T22:33:30;1.17;;;1.05;;
74168;SDS011;62523;53.336;83.690;2023-03-15T22:38:31;0.97;;;0.80;;
74168;SDS011;62523;53.336;83.690;2023-03-15T22:43:37;2.75;;;1.45;;
74168;SDS011;62523;53.336;83.690;2023-03-15T22:48:38;1.00;;;0.90;;
74168;SDS011;62523;53.336;83.690;2023-03-15T22:53:39;1.10;;;1.00;;
74168;SDS011;62523;53.336;83.690;2023-03-15T22:58:41;1.27;;;0.80;;
74168;SDS011;62523;53.336;83.690;2023-03-15T23:03:42;0.93;;;0.85;;
74168;SDS011;62523;53.336;83.690;2023-03-15T23:08:43;2.10;;;1.40;;
74168;SDS011;62523;53.336;83.690;2023-03-15T23:13:44;0.63;;;0.53;;
74168;SDS011;62523;53.336;83.690;2023-03-15T23:18:49;4.55;;;1.02;;
74168;SDS011;62523;53.336;83.690;2023-03-15T23:23:51;1.48;;;1.27;;
74168;SDS011;62523;53.336;83.690;2023-03-15T23:28:52;3.03;;;1.50;;
74168;SDS011;62523;53.336;83.690;2023-03-15T23:38:55;1.23;;;0.90;;
74168;SDS011;62523;53.336;83.690;2023-03-15T23:43:56;1.17;;;1.10;;
74168;SDS011;62523;53.336;83.690;2023-03-15T23:48:57;1.73;;;0.90;;
74168;SDS011;62523;53.336;83.690;2023-03-15T23:53:59;1.53;;;1.23;;
74168;SDS011;62523;53.336;83.690;2023-03-15T23:59:00;2.90;;;1.23;;
